SKY501 RJFF-ROAH
Flight info
| Callsign | SKY501 |
|---|---|
| Flight time | 1h 40m |
| Altitude | 36000 |
| Route | YAMGA VEMRA Y506 HKC Y45 ONC Y525 IHEYA |
| Aircraft | B738/M-SDE2E3FGHIRWXY/LB1 |
Departure
| Time | 2026-04-23 15:39 |
|---|---|
| Airport | Fukuoka Airport (RJFF) |
Arrival
| Time | 2026-04-23 17:19 |
|---|---|
| Airport | Naha International Airport (ROAH) |
| Time | Latitude | Longitude | Altitude | Speed | Heading |
|---|---|---|---|---|---|
| 2026-04-23 15:06 | 33.59594 | 130.44838 | 23 ft | 0 kts | 60° |
| 2026-04-23 15:15 | 33.59593 | 130.44838 | 22 ft | 0 kts | 60° |
| 2026-04-23 15:19 | 33.59592 | 130.44836 | 22 ft | 0 kts | 60° |
| 2026-04-23 15:19 | 33.59587 | 130.44826 | 22 ft | 2 kts | 60° |
| 2026-04-23 15:19 | 33.59580 | 130.44809 | 21 ft | 2 kts | 60° |
| 2026-04-23 15:20 | 33.59573 | 130.44794 | 21 ft | 2 kts | 60° |
| 2026-04-23 15:20 | 33.59565 | 130.44778 | 20 ft | 2 kts | 60° |
| 2026-04-23 15:20 | 33.59558 | 130.44763 | 20 ft | 2 kts | 60° |
| 2026-04-23 15:20 | 33.59552 | 130.44746 | 20 ft | 2 kts | 92° |
| 2026-04-23 15:21 | 33.59557 | 130.44730 | 19 ft | 2 kts | 133° |
| 2026-04-23 15:21 | 33.59565 | 130.44724 | 19 ft | 1 kts | 155° |
| 2026-04-23 15:21 | 33.59568 | 130.44720 | 19 ft | 0 kts | 150° |
| 2026-04-23 15:26 | 33.59564 | 130.44724 | 19 ft | 2 kts | 150° |
| 2026-04-23 15:26 | 33.59537 | 130.44742 | 20 ft | 6 kts | 150° |
| 2026-04-23 15:27 | 33.59493 | 130.44772 | 21 ft | 8 kts | 150° |
| 2026-04-23 15:27 | 33.59427 | 130.44818 | 21 ft | 12 kts | 149° |
| 2026-04-23 15:27 | 33.59327 | 130.44853 | 19 ft | 17 kts | 174° |
| 2026-04-23 15:27 | 33.59217 | 130.44873 | 19 ft | 14 kts | 156° |
| 2026-04-23 15:28 | 33.59134 | 130.44930 | 18 ft | 14 kts | 149° |
| 2026-04-23 15:28 | 33.59026 | 130.45006 | 16 ft | 19 kts | 149° |
| 2026-04-23 15:28 | 33.58909 | 130.45087 | 16 ft | 19 kts | 150° |
| 2026-04-23 15:28 | 33.58790 | 130.45166 | 17 ft | 18 kts | 150° |
| 2026-04-23 15:29 | 33.58698 | 130.45232 | 21 ft | 14 kts | 152° |
| 2026-04-23 15:29 | 33.58600 | 130.45297 | 26 ft | 17 kts | 150° |
| 2026-04-23 15:29 | 33.58487 | 130.45372 | 31 ft | 19 kts | 151° |
| 2026-04-23 15:29 | 33.58360 | 130.45459 | 37 ft | 22 kts | 150° |
| 2026-04-23 15:30 | 33.58217 | 130.45557 | 40 ft | 26 kts | 149° |
| 2026-04-23 15:30 | 33.58051 | 130.45673 | 38 ft | 27 kts | 150° |
| 2026-04-23 15:30 | 33.57889 | 130.45781 | 31 ft | 25 kts | 150° |
| 2026-04-23 15:30 | 33.57755 | 130.45868 | 24 ft | 15 kts | 171° |
| 2026-04-23 15:31 | 33.57691 | 130.45821 | 20 ft | 0 kts | 238° |
| 2026-04-23 15:32 | 33.57689 | 130.45818 | 20 ft | 0 kts | 238° |
| 2026-04-23 15:35 | 33.57688 | 130.45816 | 20 ft | 0 kts | 238° |
| 2026-04-23 15:36 | 33.57687 | 130.45815 | 20 ft | 1 kts | 238° |
| 2026-04-23 15:36 | 33.57672 | 130.45783 | 19 ft | 6 kts | 242° |
| 2026-04-23 15:36 | 33.57668 | 130.45718 | 19 ft | 7 kts | 289° |
| 2026-04-23 15:37 | 33.57690 | 130.45689 | 20 ft | 0 kts | 327° |
| 2026-04-23 15:38 | 33.57692 | 130.45688 | 21 ft | 1 kts | 327° |
| 2026-04-23 15:38 | 33.57809 | 130.45609 | 27 ft | 50 kts | 330° |
| 2026-04-23 15:38 | 33.58308 | 130.45267 | 33 ft | 113 kts | 330° |
| 2026-04-23 15:38 | 33.59168 | 130.44675 | 47 ft | 165 kts | 330° |
| 2026-04-23 15:39 | 33.60133 | 130.43967 | 653 ft | 168 kts | 328° |
| 2026-04-23 15:39 | 33.61214 | 130.43178 | 1113 ft | 186 kts | 330° |
| 2026-04-23 15:39 | 33.62323 | 130.42398 | 1766 ft | 196 kts | 330° |
| 2026-04-23 15:39 | 33.63589 | 130.41571 | 2187 ft | 216 kts | 340° |
| 2026-04-23 15:40 | 33.65118 | 130.41415 | 2558 ft | 237 kts | 11° |
| 2026-04-23 15:40 | 33.66661 | 130.42253 | 3022 ft | 256 kts | 37° |
| 2026-04-23 15:40 | 33.67752 | 130.43956 | 3746 ft | 263 kts | 61° |
| 2026-04-23 15:40 | 33.68402 | 130.46008 | 4417 ft | 271 kts | 77° |
| 2026-04-23 15:41 | 33.68458 | 130.48274 | 5221 ft | 274 kts | 99° |
| 2026-04-23 15:41 | 33.67753 | 130.50380 | 5960 ft | 278 kts | 123° |
| 2026-04-23 15:41 | 33.66436 | 130.52055 | 6690 ft | 281 kts | 144° |
| 2026-04-23 15:41 | 33.64774 | 130.53247 | 7483 ft | 283 kts | 151° |
| 2026-04-23 15:42 | 33.62992 | 130.54306 | 8189 ft | 288 kts | 156° |
| 2026-04-23 15:42 | 33.61145 | 130.55219 | 9003 ft | 289 kts | 158° |
| 2026-04-23 15:42 | 33.59315 | 130.56123 | 9768 ft | 291 kts | 158° |
| 2026-04-23 15:42 | 33.57423 | 130.57075 | 10393 ft | 301 kts | 158° |
| 2026-04-23 15:43 | 33.55410 | 130.58086 | 10520 ft | 327 kts | 158° |
| 2026-04-23 15:43 | 33.53265 | 130.59163 | 10814 ft | 346 kts | 158° |
| 2026-04-23 15:43 | 33.50984 | 130.60309 | 11125 ft | 362 kts | 158° |
| 2026-04-23 15:43 | 33.48672 | 130.61470 | 11874 ft | 365 kts | 158° |
| 2026-04-23 15:44 | 33.46294 | 130.62663 | 12482 ft | 373 kts | 158° |
| 2026-04-23 15:44 | 33.43905 | 130.63834 | 13220 ft | 375 kts | 160° |
| 2026-04-23 15:44 | 33.41438 | 130.64778 | 13892 ft | 379 kts | 166° |
| 2026-04-23 15:44 | 33.38873 | 130.65590 | 14591 ft | 382 kts | 167° |
| 2026-04-23 15:45 | 33.36298 | 130.66432 | 15254 ft | 387 kts | 166° |
| 2026-04-23 15:45 | 33.33689 | 130.67303 | 15905 ft | 391 kts | 166° |
| 2026-04-23 15:45 | 33.31071 | 130.68179 | 16533 ft | 395 kts | 167° |
| 2026-04-23 15:45 | 33.28419 | 130.69067 | 17143 ft | 399 kts | 167° |
| 2026-04-23 15:46 | 33.25756 | 130.69960 | 17733 ft | 402 kts | 167° |
| 2026-04-23 15:46 | 33.23042 | 130.70874 | 18309 ft | 406 kts | 167° |
| 2026-04-23 15:46 | 33.20343 | 130.71782 | 18863 ft | 410 kts | 167° |
| 2026-04-23 15:46 | 33.17569 | 130.72714 | 19414 ft | 413 kts | 167° |
| 2026-04-23 15:47 | 33.14818 | 130.73628 | 19943 ft | 416 kts | 169° |
| 2026-04-23 15:47 | 33.11981 | 130.74355 | 20437 ft | 418 kts | 174° |
| 2026-04-23 15:47 | 33.09105 | 130.74727 | 20946 ft | 418 kts | 181° |
| 2026-04-23 15:47 | 33.06213 | 130.74625 | 21428 ft | 418 kts | 189° |
| 2026-04-23 15:48 | 33.03315 | 130.74266 | 21935 ft | 420 kts | 189° |
| 2026-04-23 15:48 | 33.00406 | 130.73917 | 22369 ft | 423 kts | 189° |
| 2026-04-23 15:48 | 32.97452 | 130.73584 | 22829 ft | 426 kts | 189° |
| 2026-04-23 15:48 | 32.94520 | 130.73245 | 23269 ft | 428 kts | 189° |
| 2026-04-23 15:49 | 32.91541 | 130.72891 | 23690 ft | 431 kts | 190° |
| 2026-04-23 15:49 | 32.88566 | 130.72536 | 24095 ft | 434 kts | 190° |
| 2026-04-23 15:49 | 32.85561 | 130.72176 | 24500 ft | 436 kts | 190° |
| 2026-04-23 15:49 | 32.82553 | 130.71814 | 24892 ft | 439 kts | 190° |
| 2026-04-23 15:50 | 32.79528 | 130.71449 | 25259 ft | 441 kts | 190° |
| 2026-04-23 15:50 | 32.76466 | 130.71080 | 25624 ft | 444 kts | 190° |
| 2026-04-23 15:50 | 32.73397 | 130.70708 | 25970 ft | 446 kts | 189° |
| 2026-04-23 15:50 | 32.70294 | 130.70337 | 26265 ft | 450 kts | 189° |
| 2026-04-23 15:51 | 32.67163 | 130.69960 | 26576 ft | 453 kts | 189° |
| 2026-04-23 15:51 | 32.64040 | 130.69580 | 26890 ft | 455 kts | 189° |
| 2026-04-23 15:51 | 32.60881 | 130.69197 | 27176 ft | 458 kts | 189° |
| 2026-04-23 15:51 | 32.57707 | 130.68813 | 27497 ft | 460 kts | 189° |
| 2026-04-23 15:52 | 32.54544 | 130.68431 | 27771 ft | 463 kts | 189° |
| 2026-04-23 15:52 | 32.51339 | 130.68043 | 28057 ft | 465 kts | 189° |
| 2026-04-23 15:52 | 32.48093 | 130.67651 | 28346 ft | 466 kts | 189° |
| 2026-04-23 15:52 | 32.44894 | 130.67265 | 28588 ft | 469 kts | 189° |
| 2026-04-23 15:53 | 32.41652 | 130.66875 | 28951 ft | 468 kts | 189° |
| 2026-04-23 15:53 | 32.38461 | 130.66492 | 29416 ft | 465 kts | 189° |
| 2026-04-23 15:53 | 32.35339 | 130.66116 | 29747 ft | 465 kts | 189° |
| 2026-04-23 15:53 | 32.32130 | 130.65730 | 30117 ft | 464 kts | 189° |
| 2026-04-23 15:54 | 32.28919 | 130.65344 | 30485 ft | 463 kts | 189° |
| 2026-04-23 15:54 | 32.25719 | 130.64960 | 30805 ft | 463 kts | 189° |
| 2026-04-23 15:54 | 32.22520 | 130.64575 | 31163 ft | 462 kts | 189° |
| 2026-04-23 15:54 | 32.19329 | 130.64194 | 31472 ft | 462 kts | 189° |
| 2026-04-23 15:55 | 32.16175 | 130.63815 | 31824 ft | 460 kts | 189° |
| 2026-04-23 15:55 | 32.12991 | 130.63435 | 32138 ft | 460 kts | 189° |
| 2026-04-23 15:55 | 32.09801 | 130.63054 | 32440 ft | 460 kts | 189° |
| 2026-04-23 15:55 | 32.06611 | 130.62674 | 32740 ft | 459 kts | 189° |
| 2026-04-23 15:56 | 32.03443 | 130.62295 | 33051 ft | 459 kts | 189° |
| 2026-04-23 15:56 | 32.00306 | 130.61922 | 33337 ft | 458 kts | 189° |
| 2026-04-23 15:56 | 31.97103 | 130.61540 | 33609 ft | 458 kts | 189° |
| 2026-04-23 15:56 | 31.93982 | 130.61169 | 33902 ft | 458 kts | 189° |
| 2026-04-23 15:57 | 31.90804 | 130.60791 | 34188 ft | 457 kts | 189° |
| 2026-04-23 15:57 | 31.87682 | 130.60420 | 34462 ft | 456 kts | 189° |
| 2026-04-23 15:57 | 31.84539 | 130.60048 | 34715 ft | 456 kts | 189° |
| 2026-04-23 15:57 | 31.81355 | 130.59671 | 34982 ft | 455 kts | 189° |
| 2026-04-23 15:58 | 31.78231 | 130.59300 | 35236 ft | 455 kts | 189° |
| 2026-04-23 15:58 | 31.75120 | 130.58931 | 35495 ft | 454 kts | 190° |
| 2026-04-23 15:58 | 31.71987 | 130.58437 | 35729 ft | 452 kts | 193° |
| 2026-04-23 15:59 | 31.65998 | 130.56473 | 35832 ft | 450 kts | 205° |
| 2026-04-23 15:59 | 31.60169 | 130.53825 | 35831 ft | 446 kts | 204° |
| 2026-04-23 16:00 | 31.54378 | 130.51321 | 35831 ft | 446 kts | 204° |
| 2026-04-23 16:00 | 31.48570 | 130.48804 | 35831 ft | 446 kts | 204° |
| 2026-04-23 16:01 | 31.42780 | 130.46274 | 35831 ft | 446 kts | 204° |
| 2026-04-23 16:01 | 31.36997 | 130.43745 | 35831 ft | 447 kts | 204° |
| 2026-04-23 16:02 | 31.31202 | 130.41213 | 35831 ft | 447 kts | 204° |
| 2026-04-23 16:02 | 31.25374 | 130.38644 | 35830 ft | 446 kts | 205° |
| 2026-04-23 16:03 | 31.19685 | 130.35947 | 36048 ft | 442 kts | 206° |
| 2026-04-23 16:03 | 31.16845 | 130.34602 | 36354 ft | 439 kts | 205° |
| 2026-04-23 16:03 | 31.14002 | 130.33266 | 36203 ft | 448 kts | 205° |
| 2026-04-23 16:03 | 31.11111 | 130.31905 | 35794 ft | 449 kts | 205° |
| 2026-04-23 16:04 | 31.08269 | 130.30574 | 35975 ft | 436 kts | 205° |
| 2026-04-23 16:04 | 31.05503 | 130.29280 | 36398 ft | 431 kts | 205° |
| 2026-04-23 16:04 | 31.02718 | 130.27977 | 36564 ft | 433 kts | 205° |
| 2026-04-23 16:05 | 30.99477 | 130.26460 | 36630 ft | 438 kts | 205° |
| 2026-04-23 16:05 | 30.95703 | 130.24699 | 36802 ft | 441 kts | 205° |
| 2026-04-23 16:05 | 30.92854 | 130.23373 | 36978 ft | 442 kts | 204° |
| 2026-04-23 16:05 | 30.90012 | 130.22067 | 37152 ft | 442 kts | 204° |
| 2026-04-23 16:06 | 30.87163 | 130.20760 | 37326 ft | 443 kts | 204° |
| 2026-04-23 16:06 | 30.84298 | 130.19435 | 37502 ft | 444 kts | 204° |
| 2026-04-23 16:06 | 30.81428 | 130.18111 | 37676 ft | 444 kts | 204° |
| 2026-04-23 16:06 | 30.78543 | 130.16779 | 37853 ft | 444 kts | 204° |
| 2026-04-23 16:07 | 30.75656 | 130.15443 | 37896 ft | 447 kts | 204° |
| 2026-04-23 16:07 | 30.67597 | 130.11661 | 37898 ft | 447 kts | 204° |
| 2026-04-23 16:08 | 30.55481 | 130.05989 | 37897 ft | 445 kts | 204° |
| 2026-04-23 16:08 | 30.36186 | 129.97380 | 37898 ft | 444 kts | 203° |
| 2026-04-23 16:09 | 30.34195 | 129.96506 | 37884 ft | 445 kts | 203° |
| 2026-04-23 16:09 | 30.28821 | 129.94163 | 37900 ft | 445 kts | 202° |
| 2026-04-23 16:10 | 30.23071 | 129.91829 | 37899 ft | 447 kts | 202° |
| 2026-04-23 16:10 | 30.17336 | 129.89458 | 37899 ft | 447 kts | 202° |
| 2026-04-23 16:11 | 30.11601 | 129.87065 | 37899 ft | 446 kts | 202° |
| 2026-04-23 16:11 | 30.05864 | 129.84683 | 37900 ft | 446 kts | 202° |
| 2026-04-23 16:12 | 30.00124 | 129.82323 | 37899 ft | 446 kts | 202° |
| 2026-04-23 16:12 | 29.94462 | 129.79759 | 37899 ft | 446 kts | 205° |
| 2026-04-23 16:13 | 29.88860 | 129.77122 | 37899 ft | 445 kts | 204° |
| 2026-04-23 16:13 | 29.80370 | 129.73250 | 37898 ft | 446 kts | 204° |
| 2026-04-23 16:14 | 29.74718 | 129.70670 | 37899 ft | 445 kts | 204° |
| 2026-04-23 16:14 | 29.69082 | 129.68047 | 37899 ft | 445 kts | 205° |
| 2026-04-23 16:15 | 29.63458 | 129.65466 | 37899 ft | 445 kts | 204° |
| 2026-04-23 16:15 | 29.57798 | 129.62882 | 37899 ft | 446 kts | 204° |
| 2026-04-23 16:16 | 29.52145 | 129.60277 | 37899 ft | 446 kts | 204° |
| 2026-04-23 16:16 | 29.46500 | 129.57697 | 37899 ft | 446 kts | 204° |
| 2026-04-23 16:17 | 29.40842 | 129.55133 | 37899 ft | 446 kts | 204° |
| 2026-04-23 16:17 | 29.35234 | 129.52593 | 37898 ft | 445 kts | 204° |
| 2026-04-23 16:18 | 29.29549 | 129.50127 | 37899 ft | 447 kts | 202° |
| 2026-04-23 16:18 | 29.23765 | 129.47824 | 37899 ft | 446 kts | 202° |
| 2026-04-23 16:19 | 29.18052 | 129.45482 | 37899 ft | 446 kts | 202° |
| 2026-04-23 16:19 | 29.12317 | 129.43137 | 37899 ft | 447 kts | 202° |
| 2026-04-23 16:20 | 29.06582 | 129.40804 | 37900 ft | 446 kts | 202° |
| 2026-04-23 16:20 | 29.00841 | 129.38466 | 37898 ft | 446 kts | 202° |
| 2026-04-23 16:21 | 28.95165 | 129.36089 | 37899 ft | 445 kts | 203° |
| 2026-04-23 16:21 | 28.89497 | 129.33577 | 37899 ft | 445 kts | 203° |
| 2026-04-23 16:22 | 28.83830 | 129.31093 | 37899 ft | 445 kts | 203° |
| 2026-04-23 16:22 | 28.78168 | 129.28612 | 37899 ft | 445 kts | 203° |
| 2026-04-23 16:23 | 28.73832 | 129.26712 | 37899 ft | 445 kts | 203° |
| 2026-04-23 16:23 | 28.71438 | 129.25664 | 37899 ft | 445 kts | 203° |
| 2026-04-23 16:24 | 28.69025 | 129.24609 | 37899 ft | 445 kts | 203° |
| 2026-04-23 16:24 | 28.66622 | 129.23558 | 37899 ft | 445 kts | 203° |
| 2026-04-23 16:25 | 28.64201 | 129.22501 | 37899 ft | 445 kts | 203° |
| 2026-04-23 16:25 | 28.61803 | 129.21454 | 37899 ft | 445 kts | 203° |
| 2026-04-23 16:26 | 28.60108 | 129.20714 | 37899 ft | 445 kts | 203° |
| 2026-04-23 16:26 | 28.57741 | 129.19681 | 37899 ft | 445 kts | 203° |
| 2026-04-23 16:27 | 28.51968 | 129.17165 | 37899 ft | 445 kts | 202° |
| 2026-04-23 16:27 | 28.46201 | 129.14691 | 37899 ft | 446 kts | 202° |
| 2026-04-23 16:28 | 28.40421 | 129.12177 | 37899 ft | 446 kts | 203° |
| 2026-04-23 16:28 | 28.34643 | 129.09668 | 37899 ft | 446 kts | 202° |
| 2026-04-23 16:29 | 28.28901 | 129.07182 | 37899 ft | 446 kts | 202° |
| 2026-04-23 16:29 | 28.23125 | 129.04688 | 37899 ft | 446 kts | 202° |
| 2026-04-23 16:30 | 28.17303 | 129.02176 | 37899 ft | 446 kts | 202° |
| 2026-04-23 16:30 | 28.11563 | 128.99628 | 37899 ft | 445 kts | 204° |
| 2026-04-23 16:31 | 28.05829 | 128.96976 | 37899 ft | 446 kts | 204° |
| 2026-04-23 16:31 | 28.00104 | 128.94359 | 37899 ft | 445 kts | 204° |
| 2026-04-23 16:32 | 27.94350 | 128.91731 | 37899 ft | 445 kts | 204° |
| 2026-04-23 16:32 | 27.88609 | 128.89127 | 37899 ft | 445 kts | 203° |
| 2026-04-23 16:33 | 27.82801 | 128.86668 | 37899 ft | 446 kts | 202° |
| 2026-04-23 16:33 | 27.77000 | 128.84210 | 37899 ft | 446 kts | 202° |
| 2026-04-23 16:34 | 27.71201 | 128.81747 | 37899 ft | 446 kts | 202° |
| 2026-04-23 16:34 | 27.65428 | 128.79301 | 37899 ft | 446 kts | 202° |
| 2026-04-23 16:35 | 27.59607 | 128.76834 | 37899 ft | 446 kts | 202° |
| 2026-04-23 16:35 | 27.53843 | 128.74397 | 37856 ft | 444 kts | 202° |
| 2026-04-23 16:36 | 27.48174 | 128.71863 | 37855 ft | 438 kts | 210° |
| 2026-04-23 16:36 | 27.43203 | 128.67955 | 37857 ft | 437 kts | 222° |
| 2026-04-23 16:37 | 27.41102 | 128.65460 | 37856 ft | 436 kts | 235° |
| 2026-04-23 16:37 | 27.39514 | 128.62610 | 37861 ft | 436 kts | 241° |
| 2026-04-23 16:37 | 27.36453 | 128.56737 | 37857 ft | 436 kts | 239° |
| 2026-04-23 16:38 | 27.33335 | 128.50946 | 37858 ft | 435 kts | 240° |
| 2026-04-23 16:38 | 27.30262 | 128.45145 | 37857 ft | 435 kts | 240° |
| 2026-04-23 16:39 | 27.27161 | 128.39308 | 37848 ft | 435 kts | 240° |
| 2026-04-23 16:39 | 27.25621 | 128.36409 | 37297 ft | 432 kts | 240° |
| 2026-04-23 16:39 | 27.24084 | 128.33507 | 36566 ft | 432 kts | 239° |
| 2026-04-23 16:40 | 27.22570 | 128.30650 | 35804 ft | 432 kts | 239° |
| 2026-04-23 16:40 | 27.21035 | 128.27754 | 34957 ft | 434 kts | 239° |
| 2026-04-23 16:40 | 27.19486 | 128.24834 | 34071 ft | 437 kts | 239° |
| 2026-04-23 16:40 | 27.17926 | 128.21895 | 33157 ft | 439 kts | 239° |
| 2026-04-23 16:41 | 27.16364 | 128.18953 | 32220 ft | 441 kts | 239° |
| 2026-04-23 16:41 | 27.14798 | 128.16003 | 31261 ft | 443 kts | 239° |
| 2026-04-23 16:41 | 27.13231 | 128.13055 | 30280 ft | 445 kts | 239° |
| 2026-04-23 16:41 | 27.11651 | 128.10086 | 29223 ft | 447 kts | 238° |
| 2026-04-23 16:42 | 27.10049 | 128.07074 | 28435 ft | 442 kts | 238° |
| 2026-04-23 16:42 | 27.08495 | 128.04153 | 27717 ft | 437 kts | 238° |
| 2026-04-23 16:42 | 27.06928 | 128.01239 | 26996 ft | 431 kts | 237° |
| 2026-04-23 16:42 | 27.05229 | 127.98500 | 26279 ft | 425 kts | 231° |
| 2026-04-23 16:43 | 27.03243 | 127.96127 | 25582 ft | 419 kts | 219° |
| 2026-04-23 16:43 | 27.00872 | 127.94231 | 24885 ft | 413 kts | 211° |
| 2026-04-23 16:43 | 26.98412 | 127.92633 | 24171 ft | 409 kts | 206° |
| 2026-04-23 16:43 | 26.95822 | 127.91455 | 23454 ft | 404 kts | 194° |
| 2026-04-23 16:44 | 26.93081 | 127.90958 | 22764 ft | 400 kts | 186° |
| 2026-04-23 16:44 | 26.90331 | 127.90747 | 22050 ft | 396 kts | 180° |
| 2026-04-23 16:44 | 26.87565 | 127.90788 | 21347 ft | 392 kts | 178° |
| 2026-04-23 16:44 | 26.84879 | 127.90865 | 20665 ft | 388 kts | 178° |
| 2026-04-23 16:45 | 26.82210 | 127.90921 | 19981 ft | 384 kts | 178° |
| 2026-04-23 16:45 | 26.79566 | 127.90980 | 19308 ft | 380 kts | 178° |
| 2026-04-23 16:45 | 26.76946 | 127.91045 | 18638 ft | 377 kts | 178° |
| 2026-04-23 16:45 | 26.74357 | 127.91112 | 17979 ft | 373 kts | 178° |
| 2026-04-23 16:46 | 26.71788 | 127.91178 | 17323 ft | 369 kts | 177° |
| 2026-04-23 16:46 | 26.69215 | 127.91248 | 16666 ft | 366 kts | 177° |
| 2026-04-23 16:46 | 26.66695 | 127.91319 | 16024 ft | 362 kts | 177° |
| 2026-04-23 16:46 | 26.64205 | 127.91391 | 15393 ft | 359 kts | 177° |
| 2026-04-23 16:47 | 26.61766 | 127.91462 | 14775 ft | 355 kts | 177° |
| 2026-04-23 16:47 | 26.59318 | 127.91534 | 14156 ft | 353 kts | 176° |
| 2026-04-23 16:47 | 26.56859 | 127.91606 | 13542 ft | 356 kts | 176° |
| 2026-04-23 16:47 | 26.54405 | 127.91678 | 12916 ft | 353 kts | 176° |
| 2026-04-23 16:48 | 26.51986 | 127.91749 | 12380 ft | 347 kts | 176° |
| 2026-04-23 16:48 | 26.49598 | 127.91818 | 11937 ft | 338 kts | 176° |
| 2026-04-23 16:48 | 26.47298 | 127.91885 | 11649 ft | 327 kts | 176° |
| 2026-04-23 16:48 | 26.45083 | 127.91950 | 11514 ft | 311 kts | 176° |
| 2026-04-23 16:49 | 26.43681 | 127.91991 | 11416 ft | 302 kts | 176° |
| 2026-04-23 16:49 | 26.40949 | 127.92071 | 11224 ft | 286 kts | 176° |
| 2026-04-23 16:49 | 26.39003 | 127.91905 | 10945 ft | 283 kts | 193° |
| 2026-04-23 16:49 | 26.37196 | 127.91068 | 10587 ft | 283 kts | 203° |
| 2026-04-23 16:50 | 26.35405 | 127.90121 | 10114 ft | 285 kts | 202° |
| 2026-04-23 16:50 | 26.33616 | 127.89220 | 9704 ft | 284 kts | 202° |
| 2026-04-23 16:50 | 26.31805 | 127.88298 | 9260 ft | 285 kts | 202° |
| 2026-04-23 16:50 | 26.30028 | 127.87390 | 8862 ft | 285 kts | 202° |
| 2026-04-23 16:51 | 26.28244 | 127.86483 | 8463 ft | 284 kts | 202° |
| 2026-04-23 16:51 | 26.26443 | 127.85562 | 8067 ft | 284 kts | 203° |
| 2026-04-23 16:51 | 26.24662 | 127.84653 | 7683 ft | 283 kts | 203° |
| 2026-04-23 16:51 | 26.22895 | 127.83749 | 7308 ft | 281 kts | 203° |
| 2026-04-23 16:52 | 26.21122 | 127.82845 | 6934 ft | 280 kts | 204° |
| 2026-04-23 16:52 | 26.19336 | 127.81936 | 6560 ft | 279 kts | 204° |
| 2026-04-23 16:52 | 26.17605 | 127.81054 | 6199 ft | 277 kts | 204° |
| 2026-04-23 16:52 | 26.15842 | 127.80155 | 5832 ft | 276 kts | 204° |
| 2026-04-23 16:53 | 26.14121 | 127.79279 | 5474 ft | 274 kts | 204° |
| 2026-04-23 16:53 | 26.12395 | 127.78400 | 5118 ft | 272 kts | 204° |
| 2026-04-23 16:53 | 26.10672 | 127.77523 | 4733 ft | 272 kts | 205° |
| 2026-04-23 16:53 | 26.09675 | 127.77016 | 4503 ft | 272 kts | 205° |
| 2026-04-23 16:54 | 26.07983 | 127.76153 | 4376 ft | 261 kts | 205° |
| 2026-04-23 16:54 | 26.06374 | 127.75237 | 3989 ft | 261 kts | 218° |
| 2026-04-23 16:54 | 26.05282 | 127.73692 | 3646 ft | 254 kts | 252° |
| 2026-04-23 16:54 | 26.05036 | 127.71802 | 3345 ft | 248 kts | 271° |
| 2026-04-23 16:55 | 26.04976 | 127.69913 | 3095 ft | 241 kts | 268° |
| 2026-04-23 16:55 | 26.04921 | 127.68085 | 2893 ft | 224 kts | 278° |
| 2026-04-23 16:55 | 26.05415 | 127.66554 | 2709 ft | 201 kts | 310° |
| 2026-04-23 16:55 | 26.06422 | 127.65609 | 2433 ft | 191 kts | 334° |
| 2026-04-23 16:56 | 26.07657 | 127.65241 | 2120 ft | 179 kts | 356° |
| 2026-04-23 16:56 | 26.08836 | 127.65139 | 2028 ft | 163 kts | 354° |
| 2026-04-23 16:56 | 26.09954 | 127.65022 | 2043 ft | 153 kts | 355° |
| 2026-04-23 16:56 | 26.10994 | 127.64953 | 2026 ft | 150 kts | 356° |
| 2026-04-23 16:57 | 26.12050 | 127.64898 | 2032 ft | 151 kts | 357° |
| 2026-04-23 16:57 | 26.13090 | 127.64848 | 2040 ft | 150 kts | 357° |
| 2026-04-23 16:57 | 26.14131 | 127.64799 | 1921 ft | 150 kts | 357° |
| 2026-04-23 16:57 | 26.15165 | 127.64751 | 1928 ft | 149 kts | 357° |
| 2026-04-23 16:58 | 26.16226 | 127.64700 | 1649 ft | 153 kts | 357° |
| 2026-04-23 16:58 | 26.17261 | 127.64651 | 1261 ft | 149 kts | 356° |
| 2026-04-23 16:58 | 26.18282 | 127.64603 | 949 ft | 148 kts | 356° |
| 2026-04-23 16:58 | 26.19315 | 127.64548 | 872 ft | 149 kts | 357° |
| 2026-04-23 16:59 | 26.20362 | 127.64504 | 857 ft | 158 kts | 355° |
| 2026-04-23 16:59 | 26.21586 | 127.64439 | 630 ft | 190 kts | 353° |
| 2026-04-23 16:59 | 26.22900 | 127.64109 | 414 ft | 199 kts | 341° |
| 2026-04-23 16:59 | 26.24258 | 127.63654 | 548 ft | 209 kts | 341° |
| 2026-04-23 17:00 | 26.25699 | 127.62960 | 529 ft | 217 kts | 334° |
| 2026-04-23 17:00 | 26.27018 | 127.62254 | 623 ft | 212 kts | 331° |
| 2026-04-23 17:00 | 26.28332 | 127.61426 | 1047 ft | 226 kts | 333° |
| 2026-04-23 17:00 | 26.29839 | 127.60585 | 1098 ft | 260 kts | 333° |
| 2026-04-23 17:01 | 26.31378 | 127.59671 | 1422 ft | 249 kts | 332° |
| 2026-04-23 17:01 | 26.32933 | 127.58717 | 1712 ft | 256 kts | 331° |
| 2026-04-23 17:01 | 26.34395 | 127.57754 | 2069 ft | 227 kts | 329° |
| 2026-04-23 17:01 | 26.35337 | 127.57091 | 4108 ft | 151 kts | 331° |
| 2026-04-23 17:02 | 26.36424 | 127.56448 | 3838 ft | 204 kts | 335° |
| 2026-04-23 17:02 | 26.37815 | 127.55597 | 3689 ft | 245 kts | 332° |
| 2026-04-23 17:02 | 26.39403 | 127.54820 | 3662 ft | 256 kts | 340° |
| 2026-04-23 17:02 | 26.41085 | 127.54085 | 3835 ft | 257 kts | 339° |
| 2026-04-23 17:03 | 26.42738 | 127.53285 | 4112 ft | 261 kts | 336° |
| 2026-04-23 17:03 | 26.44259 | 127.52203 | 4323 ft | 265 kts | 315° |
| 2026-04-23 17:03 | 26.45126 | 127.50380 | 4567 ft | 271 kts | 282° |
| 2026-04-23 17:03 | 26.44942 | 127.48291 | 4807 ft | 278 kts | 248° |
| 2026-04-23 17:04 | 26.43926 | 127.46436 | 4971 ft | 284 kts | 236° |
| 2026-04-23 17:04 | 26.42762 | 127.44677 | 4946 ft | 282 kts | 228° |
| 2026-04-23 17:04 | 26.41164 | 127.43461 | 4935 ft | 282 kts | 198° |
| 2026-04-23 17:04 | 26.39234 | 127.43058 | 4961 ft | 282 kts | 187° |
| 2026-04-23 17:05 | 26.37286 | 127.42760 | 4954 ft | 282 kts | 188° |
| 2026-04-23 17:05 | 26.35362 | 127.42451 | 4952 ft | 282 kts | 188° |
| 2026-04-23 17:05 | 26.33413 | 127.42139 | 4951 ft | 282 kts | 188° |
| 2026-04-23 17:05 | 26.31586 | 127.41578 | 4455 ft | 280 kts | 210° |
| 2026-04-23 17:06 | 26.30130 | 127.40136 | 3934 ft | 273 kts | 230° |
| 2026-04-23 17:06 | 26.28783 | 127.38707 | 3389 ft | 270 kts | 214° |
| 2026-04-23 17:06 | 26.27121 | 127.37769 | 2860 ft | 267 kts | 201° |
| 2026-04-23 17:06 | 26.25384 | 127.37134 | 2323 ft | 264 kts | 195° |
| 2026-04-23 17:07 | 26.23600 | 127.36723 | 2007 ft | 252 kts | 188° |
| 2026-04-23 17:07 | 26.21878 | 127.36510 | 1995 ft | 253 kts | 184° |
| 2026-04-23 17:07 | 26.20137 | 127.36458 | 2054 ft | 250 kts | 178° |
| 2026-04-23 17:07 | 26.18372 | 127.36590 | 2214 ft | 256 kts | 173° |
| 2026-04-23 17:08 | 26.16620 | 127.36856 | 1989 ft | 251 kts | 170° |
| 2026-04-23 17:08 | 26.14931 | 127.37240 | 1995 ft | 251 kts | 165° |
| 2026-04-23 17:08 | 26.13276 | 127.37769 | 1993 ft | 252 kts | 161° |
| 2026-04-23 17:08 | 26.11615 | 127.38425 | 1993 ft | 251 kts | 157° |
| 2026-04-23 17:09 | 26.10010 | 127.39217 | 1993 ft | 251 kts | 152° |
| 2026-04-23 17:09 | 26.08485 | 127.40108 | 1994 ft | 250 kts | 148° |
| 2026-04-23 17:09 | 26.06974 | 127.41094 | 1988 ft | 250 kts | 153° |
| 2026-04-23 17:09 | 26.05299 | 127.41509 | 1998 ft | 255 kts | 182° |
| 2026-04-23 17:10 | 26.03471 | 127.41336 | 1987 ft | 270 kts | 180° |
| 2026-04-23 17:10 | 26.01658 | 127.41786 | 1996 ft | 270 kts | 151° |
| 2026-04-23 17:10 | 26.00192 | 127.43079 | 1992 ft | 267 kts | 127° |
| 2026-04-23 17:10 | 25.99318 | 127.44859 | 1992 ft | 263 kts | 104° |
| 2026-04-23 17:11 | 25.98883 | 127.46830 | 1988 ft | 262 kts | 100° |
| 2026-04-23 17:11 | 25.98458 | 127.48811 | 1994 ft | 262 kts | 101° |
| 2026-04-23 17:11 | 25.98034 | 127.50756 | 2009 ft | 257 kts | 101° |
| 2026-04-23 17:11 | 25.97623 | 127.52634 | 1923 ft | 243 kts | 101° |
| 2026-04-23 17:12 | 25.97230 | 127.54442 | 1926 ft | 240 kts | 101° |
| 2026-04-23 17:12 | 25.96836 | 127.56252 | 1923 ft | 241 kts | 101° |
| 2026-04-23 17:12 | 25.96441 | 127.58064 | 1923 ft | 241 kts | 101° |
| 2026-04-23 17:12 | 25.96113 | 127.59888 | 1918 ft | 235 kts | 95° |
| 2026-04-23 17:13 | 25.95972 | 127.61629 | 1926 ft | 220 kts | 90° |
| 2026-04-23 17:13 | 25.96187 | 127.63258 | 1924 ft | 212 kts | 60° |
| 2026-04-23 17:13 | 25.97215 | 127.64368 | 1927 ft | 207 kts | 22° |
| 2026-04-23 17:13 | 25.98621 | 127.64584 | 1950 ft | 205 kts | 352° |
| 2026-04-23 17:14 | 25.99979 | 127.64080 | 1922 ft | 208 kts | 341° |
| 2026-04-23 17:14 | 26.01376 | 127.63845 | 1919 ft | 206 kts | 8° |
| 2026-04-23 17:14 | 26.02671 | 127.64385 | 1917 ft | 187 kts | 25° |
| 2026-04-23 17:14 | 26.03758 | 127.64934 | 1922 ft | 156 kts | 22° |
| 2026-04-23 17:15 | 26.04729 | 127.65309 | 1922 ft | 147 kts | 2° |
| 2026-04-23 17:15 | 26.05746 | 127.65180 | 1943 ft | 147 kts | 356° |
| 2026-04-23 17:15 | 26.06758 | 127.65146 | 1948 ft | 143 kts | 358° |
| 2026-04-23 17:15 | 26.07755 | 127.65099 | 1916 ft | 145 kts | 358° |
| 2026-04-23 17:16 | 26.08772 | 127.65051 | 1888 ft | 147 kts | 358° |
| 2026-04-23 17:16 | 26.09788 | 127.65004 | 1692 ft | 146 kts | 358° |
| 2026-04-23 17:16 | 26.10781 | 127.64957 | 1508 ft | 144 kts | 358° |
| 2026-04-23 17:16 | 26.11783 | 127.64909 | 1313 ft | 144 kts | 358° |
| 2026-04-23 17:17 | 26.12781 | 127.64863 | 1119 ft | 143 kts | 358° |
| 2026-04-23 17:17 | 26.13776 | 127.64816 | 930 ft | 143 kts | 358° |
| 2026-04-23 17:17 | 26.14765 | 127.64788 | 745 ft | 142 kts | 358° |
| 2026-04-23 17:17 | 26.15752 | 127.64754 | 556 ft | 143 kts | 358° |
| 2026-04-23 17:18 | 26.17708 | 127.64668 | 156 ft | 143 kts | 357° |
| 2026-04-23 17:18 | 26.18651 | 127.64625 | 26 ft | 123 kts | 356° |
| 2026-04-23 17:18 | 26.19350 | 127.64593 | 27 ft | 77 kts | 357° |
| 2026-04-23 17:19 | 26.19725 | 127.64601 | 26 ft | 36 kts | 14° |
| 2026-04-23 17:19 | 26.19891 | 127.64683 | 24 ft | 17 kts | 28° |
| 2026-04-23 17:19 | 26.19978 | 127.64736 | 23 ft | 10 kts | 28° |
| 2026-04-23 17:19 | 26.20031 | 127.64765 | 24 ft | 9 kts | 20° |
| 2026-04-23 17:20 | 26.20106 | 127.64769 | 24 ft | 13 kts | 356° |
| 2026-04-23 17:20 | 26.20355 | 127.64757 | 22 ft | 21 kts | 358° |
| 2026-04-23 17:21 | 26.20627 | 127.64744 | 22 ft | 17 kts | 356° |
| 2026-04-23 17:21 | 26.20735 | 127.64739 | 22 ft | 14 kts | 358° |
| 2026-04-23 17:21 | 26.20885 | 127.64764 | 24 ft | 4 kts | 78° |
| 2026-04-23 17:22 | 26.20868 | 127.64799 | 25 ft | 7 kts | 140° |
| 2026-04-23 17:22 | 26.20822 | 127.64851 | 26 ft | 0 kts | 134° |